Impacts TAF Board
For situational awareness. Not to be used for flight planning purposes.
IDs:

KGWO - Greenwood/Leflore Ar, MS, US

Issued at 1735 UTC 07 Dec 2021
Updated at 1828 UTC 07 Dec 2021
Potential Impact None Slight Moderate High
Time1753Z 07/19Z 07/20Z 07/21Z 07/22Z 07/23Z 08/00Z 08/01Z 08/02Z 08/03Z 08/04Z 08/05Z 08/06Z 08/07Z>>
Type OBS PRVL PRVL PRVL PRVL PRVL PRVL PRVL PRVL PRVL PRVL PRVL PRVL PRVL
VIS 10 >6 >6 >6 >6 >6 >6 >6 >6 >6 >6 >6 >6 >6
CIG 33 45 45 45 45 45 45 45 20 20 20 20 20 20
Cover OVC OVC OVC OVC OVC OVC OVC OVC OVC OVC OVC OVC OVC OVC
FltCat VFR VFR VFR VFR VFR VFR VFR VFR MVFR MVFR MVFR MVFR MVFR MVFR
WX -- -- -- -- -- -- -- -- -- -- -- -- -- --
WDir 110 90 90 90 90 90 90 90 350 350 350 350 350 350
WSpd 5 5 5 5 5 5 5 5 3 3 3 3 3 3
WGst -- -- -- -- -- -- -- -- -- -- -- -- -- --
WSHgt -- -- -- -- -- -- -- -- -- -- -- -- -- --
WSDir -- -- -- -- -- -- -- -- -- -- -- -- -- --
WSSpd -- -- -- -- -- -- -- -- -- -- -- -- -- --
Raw TAF
KGWO 071735Z 0718/0818 09005KT P6SM OVC045
  FM080200 35003KT P6SM OVC020
  FM081400 03003KT P6SM SCT250


Raw METAR
KGWO 071753Z AUTO 11005KT 10SM OVC033 09/M02 A3013 RMK AO2 SLP203 60000 T00891022 10089 20056 58020
KGWO 071653Z AUTO 09006KT 10SM OVC034 08/M03 A3017 RMK AO2 SLP215 T00781033
KGWO 071553Z AUTO 08008KT 10SM BKN035 OVC049 07/M03 A3018 RMK AO2 RAB1459E09 PRESFR SLP218 P0000 T00671033

METAR Board
Radar Display
Forecast Discussion
For situational awareness. Not to be used for flight planning purposes.